LHA2021 EHGG-EDDP
Flight info
| Callsign | LHA2021 |
|---|---|
| Flight time | 1h 13m |
| Altitude | 25000 |
| Route | DOBAK DCT SUQIF M105 OPWOT Z612 WSN L23 STADE M170 ELSOB L619 AMLUH M852 DENIX/N0331F240 Z113 OBATU/N0327F230 Z113 SAS Z88 UPDAT T236 ADMOS T959 KOJEC KOJE1R |
| Aircraft | DH8D/M-SDE1E2FGIJ1RWYZ/S |
Departure
| Time | 2026-04-30 08:28 |
|---|---|
| Airport | Groningen Airport Eelde (EHGG) |
Arrival
| Time | 2026-04-30 09:41 |
|---|---|
| Airport | Leipzig/Halle Airport (EDDP) |
| Time | Latitude | Longitude | Altitude | Speed | Heading |
|---|---|---|---|---|---|
| 2026-04-30 08:02 | 53.12783 | 6.58711 | 17 ft | 0 kts | 83° |
| 2026-04-30 08:20 | 53.12783 | 6.58715 | 17 ft | 0 kts | 103° |
| 2026-04-30 08:20 | 53.12779 | 6.58720 | 17 ft | 1 kts | 167° |
| 2026-04-30 08:21 | 53.12768 | 6.58705 | 17 ft | 4 kts | 230° |
| 2026-04-30 08:21 | 53.12738 | 6.58625 | 17 ft | 11 kts | 242° |
| 2026-04-30 08:21 | 53.12690 | 6.58476 | 14 ft | 18 kts | 242° |
| 2026-04-30 08:21 | 53.12610 | 6.58311 | 13 ft | 17 kts | 226° |
| 2026-04-30 08:22 | 53.12538 | 6.58161 | 16 ft | 15 kts | 232° |
| 2026-04-30 08:22 | 53.12508 | 6.58099 | 17 ft | 0 kts | 232° |
| 2026-04-30 08:23 | 53.12498 | 6.58077 | 17 ft | 5 kts | 232° |
| 2026-04-30 08:23 | 53.12465 | 6.58008 | 17 ft | 9 kts | 231° |
| 2026-04-30 08:23 | 53.12416 | 6.57904 | 17 ft | 12 kts | 233° |
| 2026-04-30 08:23 | 53.12339 | 6.57840 | 20 ft | 13 kts | 190° |
| 2026-04-30 08:24 | 53.12242 | 6.57815 | 20 ft | 15 kts | 188° |
| 2026-04-30 08:24 | 53.12135 | 6.57790 | 20 ft | 16 kts | 187° |
| 2026-04-30 08:24 | 53.12027 | 6.57764 | 20 ft | 15 kts | 189° |
| 2026-04-30 08:24 | 53.11924 | 6.57739 | 20 ft | 14 kts | 187° |
| 2026-04-30 08:25 | 53.11845 | 6.57648 | 20 ft | 15 kts | 229° |
| 2026-04-30 08:25 | 53.11768 | 6.57493 | 20 ft | 18 kts | 230° |
| 2026-04-30 08:25 | 53.11679 | 6.57316 | 20 ft | 20 kts | 233° |
| 2026-04-30 08:25 | 53.11588 | 6.57110 | 17 ft | 23 kts | 233° |
| 2026-04-30 08:26 | 53.11483 | 6.56887 | 17 ft | 25 kts | 231° |
| 2026-04-30 08:26 | 53.11368 | 6.56645 | 14 ft | 26 kts | 232° |
| 2026-04-30 08:26 | 53.11264 | 6.56422 | 16 ft | 21 kts | 232° |
| 2026-04-30 08:26 | 53.11194 | 6.56243 | 17 ft | 17 kts | 257° |
| 2026-04-30 08:27 | 53.11153 | 6.56083 | 18 ft | 13 kts | 192° |
| 2026-04-30 08:27 | 53.11136 | 6.56137 | 17 ft | 0 kts | 56° |
| 2026-04-30 08:27 | 53.11323 | 6.56541 | 14 ft | 97 kts | 53° |
| 2026-04-30 08:28 | 53.11832 | 6.57690 | 281 ft | 138 kts | 59° |
| 2026-04-30 08:28 | 53.12406 | 6.58988 | 1034 ft | 145 kts | 57° |
| 2026-04-30 08:28 | 53.13037 | 6.60232 | 1948 ft | 145 kts | 57° |
| 2026-04-30 08:28 | 53.13710 | 6.61574 | 2544 ft | 160 kts | 57° |
| 2026-04-30 08:29 | 53.14430 | 6.62993 | 3235 ft | 166 kts | 57° |
| 2026-04-30 08:29 | 53.15168 | 6.64439 | 3997 ft | 168 kts | 56° |
| 2026-04-30 08:29 | 53.15916 | 6.65907 | 4777 ft | 168 kts | 57° |
| 2026-04-30 08:29 | 53.16437 | 6.67576 | 5557 ft | 163 kts | 80° |
| 2026-04-30 08:30 | 53.16618 | 6.69396 | 6303 ft | 164 kts | 84° |
| 2026-04-30 08:30 | 53.16785 | 6.71243 | 7071 ft | 166 kts | 83° |
| 2026-04-30 08:30 | 53.16956 | 6.73143 | 7839 ft | 167 kts | 83° |
| 2026-04-30 08:30 | 53.17125 | 6.75029 | 8584 ft | 168 kts | 83° |
| 2026-04-30 08:31 | 53.17297 | 6.76932 | 9327 ft | 170 kts | 82° |
| 2026-04-30 08:31 | 53.17471 | 6.78858 | 10070 ft | 172 kts | 82° |
| 2026-04-30 08:31 | 53.17646 | 6.80799 | 10820 ft | 174 kts | 82° |
| 2026-04-30 08:31 | 53.17824 | 6.82774 | 11531 ft | 176 kts | 82° |
| 2026-04-30 08:32 | 53.18003 | 6.84762 | 12262 ft | 177 kts | 82° |
| 2026-04-30 08:32 | 53.18187 | 6.86794 | 12974 ft | 180 kts | 82° |
| 2026-04-30 08:32 | 53.18370 | 6.88833 | 13669 ft | 182 kts | 81° |
| 2026-04-30 08:32 | 53.18557 | 6.90906 | 14334 ft | 184 kts | 81° |
| 2026-04-30 08:33 | 53.18748 | 6.93023 | 14952 ft | 187 kts | 81° |
| 2026-04-30 08:33 | 53.18950 | 6.95266 | 15144 ft | 212 kts | 81° |
| 2026-04-30 08:33 | 53.19178 | 6.97786 | 15442 ft | 227 kts | 81° |
| 2026-04-30 08:33 | 53.19416 | 7.00423 | 15976 ft | 233 kts | 81° |
| 2026-04-30 08:34 | 53.19655 | 7.03087 | 16531 ft | 236 kts | 81° |
| 2026-04-30 08:34 | 53.19896 | 7.05799 | 17080 ft | 240 kts | 80° |
| 2026-04-30 08:34 | 53.20139 | 7.08538 | 17602 ft | 243 kts | 80° |
| 2026-04-30 08:34 | 53.20385 | 7.11315 | 18135 ft | 245 kts | 80° |
| 2026-04-30 08:35 | 53.20632 | 7.14122 | 18643 ft | 247 kts | 80° |
| 2026-04-30 08:35 | 53.20883 | 7.16975 | 19117 ft | 250 kts | 80° |
| 2026-04-30 08:35 | 53.21133 | 7.19836 | 19605 ft | 252 kts | 79° |
| 2026-04-30 08:35 | 53.21325 | 7.22724 | 20035 ft | 256 kts | 84° |
| 2026-04-30 08:36 | 53.21371 | 7.25704 | 20494 ft | 258 kts | 86° |
| 2026-04-30 08:36 | 53.21399 | 7.28700 | 20906 ft | 260 kts | 86° |
| 2026-04-30 08:36 | 53.21427 | 7.31710 | 21293 ft | 262 kts | 86° |
| 2026-04-30 08:36 | 53.21455 | 7.34749 | 21649 ft | 264 kts | 86° |
| 2026-04-30 08:37 | 53.21485 | 7.37830 | 21992 ft | 267 kts | 86° |
| 2026-04-30 08:37 | 53.21514 | 7.40904 | 22348 ft | 268 kts | 86° |
| 2026-04-30 08:37 | 53.21543 | 7.43986 | 22677 ft | 269 kts | 86° |
| 2026-04-30 08:37 | 53.21573 | 7.47150 | 22995 ft | 271 kts | 85° |
| 2026-04-30 08:38 | 53.21601 | 7.50241 | 23280 ft | 273 kts | 85° |
| 2026-04-30 08:38 | 53.21631 | 7.53445 | 23555 ft | 275 kts | 85° |
| 2026-04-30 08:38 | 53.21658 | 7.56626 | 23833 ft | 276 kts | 86° |
| 2026-04-30 08:38 | 53.21722 | 7.59820 | 24118 ft | 275 kts | 80° |
| 2026-04-30 08:39 | 53.22166 | 7.62893 | 24333 ft | 276 kts | 70° |
| 2026-04-30 08:39 | 53.22759 | 7.65920 | 24615 ft | 276 kts | 70° |
| 2026-04-30 08:39 | 53.23357 | 7.68962 | 24845 ft | 278 kts | 70° |
| 2026-04-30 08:39 | 53.23952 | 7.72004 | 25073 ft | 279 kts | 70° |
| 2026-04-30 08:40 | 53.24550 | 7.75080 | 25322 ft | 280 kts | 70° |
| 2026-04-30 08:40 | 53.25151 | 7.78184 | 25452 ft | 284 kts | 70° |
| 2026-04-30 08:40 | 53.25762 | 7.81356 | 25482 ft | 291 kts | 70° |
| 2026-04-30 08:40 | 53.26379 | 7.84562 | 25489 ft | 289 kts | 70° |
| 2026-04-30 08:41 | 53.26985 | 7.87727 | 25486 ft | 287 kts | 70° |
| 2026-04-30 08:41 | 53.27586 | 7.90874 | 25486 ft | 286 kts | 70° |
| 2026-04-30 08:41 | 53.28192 | 7.94053 | 25487 ft | 285 kts | 70° |
| 2026-04-30 08:41 | 53.28785 | 7.97175 | 25491 ft | 283 kts | 70° |
| 2026-04-30 08:42 | 53.29375 | 8.00290 | 25490 ft | 281 kts | 70° |
| 2026-04-30 08:42 | 53.29966 | 8.03413 | 25490 ft | 280 kts | 70° |
| 2026-04-30 08:42 | 53.30549 | 8.06498 | 25487 ft | 279 kts | 70° |
| 2026-04-30 08:42 | 53.31128 | 8.09570 | 25492 ft | 278 kts | 70° |
| 2026-04-30 08:43 | 53.31709 | 8.12658 | 25493 ft | 278 kts | 70° |
| 2026-04-30 08:43 | 53.32282 | 8.15712 | 25492 ft | 277 kts | 70° |
| 2026-04-30 08:43 | 53.32872 | 8.18762 | 25492 ft | 276 kts | 68° |
| 2026-04-30 08:43 | 53.33548 | 8.21720 | 25493 ft | 275 kts | 66° |
| 2026-04-30 08:44 | 53.34245 | 8.24668 | 25491 ft | 274 kts | 66° |
| 2026-04-30 08:44 | 53.34946 | 8.27651 | 25492 ft | 273 kts | 66° |
| 2026-04-30 08:44 | 53.35630 | 8.30577 | 25495 ft | 273 kts | 66° |
| 2026-04-30 08:44 | 53.36321 | 8.33550 | 25496 ft | 273 kts | 66° |
| 2026-04-30 08:45 | 53.37001 | 8.36487 | 25492 ft | 272 kts | 66° |
| 2026-04-30 08:45 | 53.37681 | 8.39432 | 25494 ft | 272 kts | 66° |
| 2026-04-30 08:45 | 53.38356 | 8.42363 | 25497 ft | 271 kts | 66° |
| 2026-04-30 08:45 | 53.39039 | 8.45335 | 25498 ft | 271 kts | 66° |
| 2026-04-30 08:46 | 53.39710 | 8.48271 | 25500 ft | 271 kts | 67° |
| 2026-04-30 08:46 | 53.40083 | 8.51354 | 25482 ft | 275 kts | 89° |
| 2026-04-30 08:46 | 53.39731 | 8.54479 | 25503 ft | 278 kts | 98° |
| 2026-04-30 08:46 | 53.39258 | 8.57597 | 25503 ft | 278 kts | 99° |
| 2026-04-30 08:47 | 53.38773 | 8.60765 | 25500 ft | 278 kts | 99° |
| 2026-04-30 08:47 | 53.38299 | 8.63862 | 25494 ft | 279 kts | 98° |
| 2026-04-30 08:47 | 53.37818 | 8.67016 | 25491 ft | 279 kts | 99° |
| 2026-04-30 08:47 | 53.37339 | 8.70160 | 25486 ft | 279 kts | 99° |
| 2026-04-30 08:48 | 53.36858 | 8.73315 | 25483 ft | 280 kts | 99° |
| 2026-04-30 08:48 | 53.36383 | 8.76439 | 25483 ft | 280 kts | 99° |
| 2026-04-30 08:48 | 53.35899 | 8.79611 | 25479 ft | 280 kts | 99° |
| 2026-04-30 08:48 | 53.35424 | 8.82729 | 25483 ft | 280 kts | 99° |
| 2026-04-30 08:49 | 53.34971 | 8.85884 | 25477 ft | 278 kts | 95° |
| 2026-04-30 08:49 | 53.35135 | 8.88975 | 25492 ft | 265 kts | 69° |
| 2026-04-30 08:49 | 53.35831 | 8.91829 | 25490 ft | 265 kts | 65° |
| 2026-04-30 08:49 | 53.36566 | 8.94648 | 25494 ft | 265 kts | 64° |
| 2026-04-30 08:50 | 53.37303 | 8.97468 | 25496 ft | 265 kts | 64° |
| 2026-04-30 08:50 | 53.38039 | 9.00284 | 25498 ft | 266 kts | 64° |
| 2026-04-30 08:50 | 53.38776 | 9.03109 | 25501 ft | 266 kts | 64° |
| 2026-04-30 08:50 | 53.39521 | 9.05968 | 25503 ft | 266 kts | 64° |
| 2026-04-30 08:51 | 53.40260 | 9.08808 | 25503 ft | 267 kts | 64° |
| 2026-04-30 08:51 | 53.40991 | 9.11625 | 25504 ft | 268 kts | 64° |
| 2026-04-30 08:51 | 53.41736 | 9.14498 | 25506 ft | 269 kts | 64° |
| 2026-04-30 08:51 | 53.42482 | 9.17383 | 25507 ft | 270 kts | 64° |
| 2026-04-30 08:52 | 53.43227 | 9.20265 | 25506 ft | 271 kts | 64° |
| 2026-04-30 08:52 | 53.43979 | 9.23177 | 25504 ft | 272 kts | 64° |
| 2026-04-30 08:52 | 53.44729 | 9.26082 | 25505 ft | 272 kts | 64° |
| 2026-04-30 08:52 | 53.45475 | 9.28983 | 25506 ft | 273 kts | 64° |
| 2026-04-30 08:53 | 53.46221 | 9.31880 | 25505 ft | 273 kts | 64° |
| 2026-04-30 08:53 | 53.46975 | 9.34815 | 25508 ft | 274 kts | 64° |
| 2026-04-30 08:53 | 53.47723 | 9.37733 | 25507 ft | 274 kts | 64° |
| 2026-04-30 08:53 | 53.48476 | 9.40672 | 25507 ft | 274 kts | 64° |
| 2026-04-30 08:54 | 53.49286 | 9.43563 | 25494 ft | 273 kts | 56° |
| 2026-04-30 08:54 | 53.50654 | 9.45660 | 25522 ft | 271 kts | 32° |
| 2026-04-30 08:54 | 53.52322 | 9.47121 | 25512 ft | 273 kts | 28° |
| 2026-04-30 08:54 | 53.54035 | 9.48558 | 25509 ft | 273 kts | 28° |
| 2026-04-30 08:55 | 53.55718 | 9.49965 | 25511 ft | 274 kts | 28° |
| 2026-04-30 08:55 | 53.57431 | 9.51400 | 25510 ft | 274 kts | 28° |
| 2026-04-30 08:55 | 53.59117 | 9.52816 | 25510 ft | 274 kts | 28° |
| 2026-04-30 08:55 | 53.60836 | 9.54262 | 25509 ft | 274 kts | 28° |
| 2026-04-30 08:56 | 53.62506 | 9.55771 | 25498 ft | 273 kts | 35° |
| 2026-04-30 08:56 | 53.63667 | 9.58187 | 25503 ft | 271 kts | 66° |
| 2026-04-30 08:56 | 53.63801 | 9.61371 | 25508 ft | 280 kts | 97° |
| 2026-04-30 08:56 | 53.63117 | 9.64461 | 25516 ft | 286 kts | 107° |
| 2026-04-30 08:57 | 53.62289 | 9.67477 | 25514 ft | 288 kts | 109° |
| 2026-04-30 08:57 | 53.61431 | 9.70514 | 25509 ft | 289 kts | 109° |
| 2026-04-30 08:57 | 53.60551 | 9.73581 | 25504 ft | 290 kts | 110° |
| 2026-04-30 08:57 | 53.59665 | 9.76639 | 25500 ft | 291 kts | 110° |
| 2026-04-30 08:58 | 53.58785 | 9.79656 | 25502 ft | 292 kts | 110° |
| 2026-04-30 08:58 | 53.57882 | 9.82731 | 25501 ft | 292 kts | 110° |
| 2026-04-30 08:58 | 53.56980 | 9.85792 | 25501 ft | 293 kts | 110° |
| 2026-04-30 08:58 | 53.56079 | 9.88837 | 25501 ft | 293 kts | 110° |
| 2026-04-30 08:59 | 53.55174 | 9.91888 | 25502 ft | 294 kts | 110° |
| 2026-04-30 08:59 | 53.54262 | 9.94954 | 25499 ft | 294 kts | 110° |
| 2026-04-30 08:59 | 53.53337 | 9.98056 | 25502 ft | 294 kts | 110° |
| 2026-04-30 08:59 | 53.52433 | 10.01080 | 25501 ft | 294 kts | 110° |
| 2026-04-30 09:00 | 53.51504 | 10.04185 | 25502 ft | 294 kts | 110° |
| 2026-04-30 09:00 | 53.50599 | 10.07206 | 25502 ft | 295 kts | 110° |
| 2026-04-30 09:00 | 53.49672 | 10.10293 | 25502 ft | 295 kts | 110° |
| 2026-04-30 09:00 | 53.48753 | 10.13350 | 25505 ft | 295 kts | 110° |
| 2026-04-30 09:01 | 53.47825 | 10.16431 | 25507 ft | 295 kts | 110° |
| 2026-04-30 09:01 | 53.46884 | 10.19478 | 25506 ft | 295 kts | 110° |
| 2026-04-30 09:01 | 53.45935 | 10.22508 | 25506 ft | 295 kts | 110° |
| 2026-04-30 09:01 | 53.44985 | 10.25539 | 25508 ft | 295 kts | 110° |
| 2026-04-30 09:02 | 53.42858 | 10.31434 | 25483 ft | 307 kts | 129° |
| 2026-04-30 09:02 | 53.40951 | 10.33188 | 25515 ft | 320 kts | 155° |
| 2026-04-30 09:02 | 53.38824 | 10.34185 | 25507 ft | 323 kts | 159° |
| 2026-04-30 09:03 | 53.36657 | 10.35132 | 25505 ft | 323 kts | 159° |
| 2026-04-30 09:03 | 53.34478 | 10.36084 | 25504 ft | 324 kts | 159° |
| 2026-04-30 09:03 | 53.32314 | 10.37035 | 25506 ft | 324 kts | 159° |
| 2026-04-30 09:03 | 53.30119 | 10.38004 | 25505 ft | 324 kts | 159° |
| 2026-04-30 09:04 | 53.27961 | 10.38960 | 25505 ft | 324 kts | 159° |
| 2026-04-30 09:04 | 53.25786 | 10.39925 | 25506 ft | 324 kts | 158° |
| 2026-04-30 09:04 | 53.23620 | 10.40887 | 25506 ft | 324 kts | 158° |
| 2026-04-30 09:04 | 53.21420 | 10.41865 | 25507 ft | 324 kts | 158° |
| 2026-04-30 09:05 | 53.19273 | 10.42820 | 25509 ft | 324 kts | 158° |
| 2026-04-30 09:05 | 53.17074 | 10.43797 | 25513 ft | 325 kts | 158° |
| 2026-04-30 09:05 | 53.14903 | 10.44762 | 25511 ft | 325 kts | 158° |
| 2026-04-30 09:05 | 53.12690 | 10.45570 | 25495 ft | 331 kts | 168° |
| 2026-04-30 09:06 | 53.10392 | 10.45530 | 25514 ft | 335 kts | 178° |
| 2026-04-30 09:06 | 53.08080 | 10.45280 | 25515 ft | 335 kts | 178° |
| 2026-04-30 09:06 | 53.05769 | 10.45027 | 25517 ft | 335 kts | 178° |
| 2026-04-30 09:06 | 53.03414 | 10.44774 | 25512 ft | 336 kts | 178° |
| 2026-04-30 09:07 | 53.01091 | 10.44529 | 25509 ft | 336 kts | 178° |
| 2026-04-30 09:07 | 52.98761 | 10.44287 | 25508 ft | 336 kts | 178° |
| 2026-04-30 09:07 | 52.96460 | 10.44052 | 25506 ft | 336 kts | 178° |
| 2026-04-30 09:07 | 52.94127 | 10.43816 | 25503 ft | 337 kts | 178° |
| 2026-04-30 09:08 | 52.91793 | 10.43581 | 25502 ft | 337 kts | 178° |
| 2026-04-30 09:08 | 52.89462 | 10.43348 | 25499 ft | 337 kts | 178° |
| 2026-04-30 09:08 | 52.87118 | 10.43114 | 25499 ft | 336 kts | 178° |
| 2026-04-30 09:08 | 52.84773 | 10.42882 | 25501 ft | 336 kts | 178° |
| 2026-04-30 09:09 | 52.82472 | 10.42655 | 25502 ft | 336 kts | 178° |
| 2026-04-30 09:09 | 52.80142 | 10.42425 | 25503 ft | 336 kts | 178° |
| 2026-04-30 09:09 | 52.77799 | 10.42195 | 25502 ft | 336 kts | 178° |
| 2026-04-30 09:09 | 52.75493 | 10.41969 | 25501 ft | 336 kts | 178° |
| 2026-04-30 09:10 | 52.73166 | 10.41741 | 25502 ft | 336 kts | 178° |
| 2026-04-30 09:10 | 52.70849 | 10.41254 | 25476 ft | 342 kts | 192° |
| 2026-04-30 09:10 | 52.68745 | 10.39424 | 25512 ft | 344 kts | 212° |
| 2026-04-30 09:10 | 52.66815 | 10.37156 | 25500 ft | 344 kts | 214° |
| 2026-04-30 09:11 | 52.64870 | 10.34844 | 25500 ft | 345 kts | 214° |
| 2026-04-30 09:11 | 52.62911 | 10.32517 | 25499 ft | 345 kts | 214° |
| 2026-04-30 09:11 | 52.60978 | 10.30228 | 25501 ft | 346 kts | 214° |
| 2026-04-30 09:11 | 52.59023 | 10.27919 | 25500 ft | 346 kts | 214° |
| 2026-04-30 09:12 | 52.57070 | 10.25618 | 25499 ft | 346 kts | 214° |
| 2026-04-30 09:12 | 52.55142 | 10.23350 | 25498 ft | 346 kts | 214° |
| 2026-04-30 09:12 | 52.53167 | 10.21032 | 25496 ft | 346 kts | 214° |
| 2026-04-30 09:12 | 52.51203 | 10.18730 | 25495 ft | 346 kts | 214° |
| 2026-04-30 09:13 | 52.49272 | 10.16469 | 25497 ft | 346 kts | 214° |
| 2026-04-30 09:13 | 52.47310 | 10.14176 | 25479 ft | 345 kts | 214° |
| 2026-04-30 09:13 | 52.45346 | 10.11885 | 25252 ft | 346 kts | 214° |
| 2026-04-30 09:13 | 52.43403 | 10.09622 | 24990 ft | 347 kts | 214° |
| 2026-04-30 09:14 | 52.41431 | 10.07328 | 24728 ft | 349 kts | 214° |
| 2026-04-30 09:14 | 52.39453 | 10.05029 | 24459 ft | 350 kts | 214° |
| 2026-04-30 09:14 | 52.37487 | 10.02746 | 24199 ft | 350 kts | 214° |
| 2026-04-30 09:14 | 52.35499 | 10.00439 | 23932 ft | 350 kts | 214° |
| 2026-04-30 09:15 | 52.33519 | 9.98145 | 23665 ft | 349 kts | 214° |
| 2026-04-30 09:15 | 52.31549 | 9.95866 | 23518 ft | 344 kts | 214° |
| 2026-04-30 09:15 | 52.29633 | 9.93650 | 23481 ft | 337 kts | 214° |
| 2026-04-30 09:15 | 52.27687 | 9.91472 | 23469 ft | 339 kts | 208° |
| 2026-04-30 09:16 | 52.25497 | 9.90311 | 23473 ft | 329 kts | 179° |
| 2026-04-30 09:16 | 52.23316 | 9.90925 | 23484 ft | 313 kts | 150° |
| 2026-04-30 09:16 | 52.21420 | 9.92603 | 23482 ft | 311 kts | 142° |
| 2026-04-30 09:16 | 52.19576 | 9.94426 | 23477 ft | 313 kts | 141° |
| 2026-04-30 09:17 | 52.17736 | 9.96282 | 23478 ft | 315 kts | 141° |
| 2026-04-30 09:17 | 52.15854 | 9.98199 | 23478 ft | 317 kts | 141° |
| 2026-04-30 09:17 | 52.14005 | 10.00094 | 23482 ft | 318 kts | 141° |
| 2026-04-30 09:17 | 52.12134 | 10.02021 | 23483 ft | 319 kts | 141° |
| 2026-04-30 09:18 | 52.10255 | 10.03960 | 23480 ft | 320 kts | 141° |
| 2026-04-30 09:18 | 52.08371 | 10.05909 | 23481 ft | 321 kts | 140° |
| 2026-04-30 09:18 | 52.06494 | 10.07853 | 23482 ft | 322 kts | 141° |
| 2026-04-30 09:18 | 52.04610 | 10.09804 | 23485 ft | 323 kts | 140° |
| 2026-04-30 09:19 | 52.02722 | 10.11760 | 23484 ft | 323 kts | 141° |
| 2026-04-30 09:19 | 52.00832 | 10.13716 | 23485 ft | 324 kts | 140° |
| 2026-04-30 09:19 | 51.98956 | 10.15659 | 23481 ft | 324 kts | 140° |
| 2026-04-30 09:19 | 51.97062 | 10.17618 | 23478 ft | 324 kts | 140° |
| 2026-04-30 09:20 | 51.95152 | 10.19592 | 23480 ft | 324 kts | 140° |
| 2026-04-30 09:20 | 51.93314 | 10.21647 | 23470 ft | 318 kts | 132° |
| 2026-04-30 09:20 | 51.92041 | 10.24398 | 23505 ft | 303 kts | 112° |
| 2026-04-30 09:20 | 51.91044 | 10.27389 | 23484 ft | 304 kts | 111° |
| 2026-04-30 09:21 | 51.90057 | 10.30400 | 23484 ft | 304 kts | 111° |
| 2026-04-30 09:21 | 51.89058 | 10.33446 | 23478 ft | 304 kts | 111° |
| 2026-04-30 09:21 | 51.88066 | 10.36468 | 23476 ft | 304 kts | 111° |
| 2026-04-30 09:21 | 51.87082 | 10.39456 | 23476 ft | 304 kts | 111° |
| 2026-04-30 09:22 | 51.86081 | 10.42489 | 23472 ft | 305 kts | 111° |
| 2026-04-30 09:22 | 51.85096 | 10.45471 | 23468 ft | 305 kts | 111° |
| 2026-04-30 09:22 | 51.84096 | 10.48492 | 23463 ft | 305 kts | 111° |
| 2026-04-30 09:22 | 51.83099 | 10.51500 | 23455 ft | 305 kts | 111° |
| 2026-04-30 09:23 | 51.82094 | 10.54528 | 23445 ft | 305 kts | 111° |
| 2026-04-30 09:23 | 51.81098 | 10.57524 | 23444 ft | 305 kts | 111° |
| 2026-04-30 09:23 | 51.80100 | 10.60523 | 23444 ft | 305 kts | 111° |
| 2026-04-30 09:23 | 51.79096 | 10.63537 | 23438 ft | 305 kts | 111° |
| 2026-04-30 09:24 | 51.78093 | 10.66545 | 23306 ft | 307 kts | 111° |
| 2026-04-30 09:24 | 51.77092 | 10.69544 | 22952 ft | 302 kts | 111° |
| 2026-04-30 09:24 | 51.76104 | 10.72503 | 22537 ft | 297 kts | 111° |
| 2026-04-30 09:24 | 51.75135 | 10.75407 | 22105 ft | 294 kts | 111° |
| 2026-04-30 09:25 | 51.74184 | 10.78260 | 21686 ft | 288 kts | 111° |
| 2026-04-30 09:25 | 51.73240 | 10.81088 | 21266 ft | 283 kts | 111° |
| 2026-04-30 09:25 | 51.72340 | 10.83862 | 20852 ft | 277 kts | 108° |
| 2026-04-30 09:25 | 51.71618 | 10.86670 | 20460 ft | 272 kts | 104° |
| 2026-04-30 09:26 | 51.70937 | 10.89512 | 20062 ft | 272 kts | 104° |
| 2026-04-30 09:26 | 51.70261 | 10.92333 | 19668 ft | 271 kts | 104° |
| 2026-04-30 09:26 | 51.69577 | 10.95178 | 19274 ft | 271 kts | 104° |
| 2026-04-30 09:26 | 51.68905 | 10.97964 | 18881 ft | 270 kts | 104° |
| 2026-04-30 09:27 | 51.68225 | 11.00767 | 18481 ft | 269 kts | 104° |
| 2026-04-30 09:27 | 51.67550 | 11.03548 | 18096 ft | 267 kts | 104° |
| 2026-04-30 09:27 | 51.66874 | 11.06324 | 17707 ft | 266 kts | 104° |
| 2026-04-30 09:27 | 51.66200 | 11.09089 | 17315 ft | 266 kts | 105° |
| 2026-04-30 09:28 | 51.65528 | 11.11842 | 16926 ft | 265 kts | 104° |
| 2026-04-30 09:28 | 51.64856 | 11.14587 | 16538 ft | 264 kts | 105° |
| 2026-04-30 09:28 | 51.64185 | 11.17329 | 16152 ft | 264 kts | 105° |
| 2026-04-30 09:28 | 51.63513 | 11.20068 | 15762 ft | 265 kts | 105° |
| 2026-04-30 09:29 | 51.62840 | 11.22804 | 15376 ft | 265 kts | 105° |
| 2026-04-30 09:29 | 51.62156 | 11.25567 | 14981 ft | 267 kts | 106° |
| 2026-04-30 09:29 | 51.61246 | 11.28170 | 14591 ft | 273 kts | 117° |
| 2026-04-30 09:29 | 51.60139 | 11.30666 | 14180 ft | 274 kts | 119° |
| 2026-04-30 09:30 | 51.59024 | 11.33143 | 13776 ft | 275 kts | 119° |
| 2026-04-30 09:30 | 51.57913 | 11.35610 | 13373 ft | 275 kts | 119° |
| 2026-04-30 09:30 | 51.56800 | 11.38088 | 12950 ft | 274 kts | 119° |
| 2026-04-30 09:30 | 51.55681 | 11.40583 | 12509 ft | 276 kts | 119° |
| 2026-04-30 09:31 | 51.54570 | 11.43063 | 12072 ft | 277 kts | 119° |
| 2026-04-30 09:31 | 51.53453 | 11.45555 | 11631 ft | 277 kts | 119° |
| 2026-04-30 09:31 | 51.52331 | 11.48061 | 11188 ft | 277 kts | 119° |
| 2026-04-30 09:31 | 51.51181 | 11.50543 | 10739 ft | 279 kts | 123° |
| 2026-04-30 09:32 | 51.49860 | 11.52791 | 10291 ft | 280 kts | 128° |
| 2026-04-30 09:32 | 51.48484 | 11.54979 | 9834 ft | 276 kts | 129° |
| 2026-04-30 09:32 | 51.47138 | 11.57113 | 9374 ft | 270 kts | 129° |
| 2026-04-30 09:32 | 51.45829 | 11.59190 | 8917 ft | 264 kts | 129° |
| 2026-04-30 09:33 | 51.44540 | 11.61238 | 8464 ft | 259 kts | 129° |
| 2026-04-30 09:33 | 51.43287 | 11.63233 | 8009 ft | 253 kts | 128° |
| 2026-04-30 09:33 | 51.42052 | 11.65200 | 7549 ft | 247 kts | 129° |
| 2026-04-30 09:33 | 51.40930 | 11.67212 | 7074 ft | 237 kts | 117° |
| 2026-04-30 09:34 | 51.40567 | 11.69634 | 6610 ft | 221 kts | 88° |
| 2026-04-30 09:34 | 51.40663 | 11.72046 | 6166 ft | 216 kts | 84° |
| 2026-04-30 09:34 | 51.40786 | 11.74396 | 5768 ft | 211 kts | 84° |
| 2026-04-30 09:34 | 51.40914 | 11.76713 | 5378 ft | 206 kts | 84° |
| 2026-04-30 09:35 | 51.41038 | 11.78956 | 4996 ft | 202 kts | 84° |
| 2026-04-30 09:35 | 51.41155 | 11.81161 | 4663 ft | 195 kts | 84° |
| 2026-04-30 09:35 | 51.41261 | 11.83257 | 4388 ft | 185 kts | 85° |
| 2026-04-30 09:35 | 51.41362 | 11.85287 | 4122 ft | 180 kts | 85° |
| 2026-04-30 09:36 | 51.41457 | 11.87246 | 3869 ft | 179 kts | 85° |
| 2026-04-30 09:36 | 51.41550 | 11.89253 | 3623 ft | 183 kts | 86° |
| 2026-04-30 09:36 | 51.41631 | 11.91307 | 3373 ft | 186 kts | 85° |
| 2026-04-30 09:36 | 51.41737 | 11.93383 | 3133 ft | 187 kts | 85° |
| 2026-04-30 09:37 | 51.41838 | 11.95436 | 3019 ft | 183 kts | 85° |
| 2026-04-30 09:37 | 51.41936 | 11.97408 | 2981 ft | 173 kts | 85° |
| 2026-04-30 09:37 | 51.42028 | 11.99314 | 2972 ft | 173 kts | 86° |
| 2026-04-30 09:37 | 51.42122 | 12.01250 | 2967 ft | 175 kts | 85° |
| 2026-04-30 09:38 | 51.42219 | 12.03218 | 2803 ft | 183 kts | 85° |
| 2026-04-30 09:38 | 51.42320 | 12.05280 | 2555 ft | 190 kts | 85° |
| 2026-04-30 09:38 | 51.42428 | 12.07353 | 2263 ft | 184 kts | 85° |
| 2026-04-30 09:38 | 51.42530 | 12.09374 | 1998 ft | 177 kts | 85° |
| 2026-04-30 09:39 | 51.42621 | 12.11236 | 1754 ft | 159 kts | 85° |
| 2026-04-30 09:39 | 51.42702 | 12.12892 | 1558 ft | 140 kts | 85° |
| 2026-04-30 09:39 | 51.42771 | 12.14384 | 1385 ft | 132 kts | 84° |
| 2026-04-30 09:39 | 51.42840 | 12.15822 | 1214 ft | 127 kts | 84° |
| 2026-04-30 09:40 | 51.42905 | 12.17193 | 1055 ft | 123 kts | 85° |
| 2026-04-30 09:40 | 51.42970 | 12.18573 | 903 ft | 127 kts | 85° |
| 2026-04-30 09:40 | 51.43040 | 12.19999 | 727 ft | 129 kts | 84° |
| 2026-04-30 09:40 | 51.43114 | 12.21426 | 559 ft | 127 kts | 85° |
| 2026-04-30 09:41 | 51.43185 | 12.22781 | 481 ft | 117 kts | 85° |
| 2026-04-30 09:41 | 51.43228 | 12.23727 | 481 ft | 62 kts | 85° |
| 2026-04-30 09:41 | 51.43253 | 12.24287 | 481 ft | 41 kts | 88° |
| 2026-04-30 09:41 | 51.43196 | 12.24659 | 481 ft | 29 kts | 113° |
| 2026-04-30 09:42 | 51.43124 | 12.24911 | 481 ft | 21 kts | 114° |
| 2026-04-30 09:42 | 51.43053 | 12.25097 | 481 ft | 18 kts | 151° |
| 2026-04-30 09:42 | 51.42932 | 12.25090 | 481 ft | 18 kts | 192° |
| 2026-04-30 09:42 | 51.42803 | 12.25041 | 489 ft | 17 kts | 195° |
| 2026-04-30 09:43 | 51.42668 | 12.24988 | 493 ft | 22 kts | 192° |
| 2026-04-30 09:43 | 51.42501 | 12.24929 | 497 ft | 26 kts | 194° |
| 2026-04-30 09:43 | 51.42313 | 12.24855 | 503 ft | 27 kts | 194° |
| 2026-04-30 09:43 | 51.42128 | 12.24786 | 507 ft | 26 kts | 193° |
| 2026-04-30 09:44 | 51.41950 | 12.24718 | 505 ft | 25 kts | 193° |
| 2026-04-30 09:44 | 51.41787 | 12.24652 | 487 ft | 21 kts | 194° |
| 2026-04-30 09:44 | 51.41671 | 12.24580 | 481 ft | 17 kts | 236° |
| 2026-04-30 09:44 | 51.41649 | 12.24389 | 481 ft | 18 kts | 266° |
| 2026-04-30 09:45 | 51.41638 | 12.24178 | 481 ft | 19 kts | 265° |
| 2026-04-30 09:45 | 51.41628 | 12.23963 | 481 ft | 19 kts | 265° |
| 2026-04-30 09:45 | 51.41618 | 12.23742 | 481 ft | 20 kts | 266° |
| 2026-04-30 09:45 | 51.41609 | 12.23513 | 481 ft | 20 kts | 266° |
| 2026-04-30 09:46 | 51.41601 | 12.23281 | 481 ft | 21 kts | 269° |
| 2026-04-30 09:46 | 51.41631 | 12.23050 | 481 ft | 21 kts | 286° |
| 2026-04-30 09:46 | 51.41673 | 12.22829 | 481 ft | 21 kts | 285° |
| 2026-04-30 09:46 | 51.41710 | 12.22597 | 481 ft | 21 kts | 284° |
| 2026-04-30 09:47 | 51.41749 | 12.22363 | 481 ft | 21 kts | 285° |
| 2026-04-30 09:47 | 51.41789 | 12.22131 | 481 ft | 22 kts | 285° |
| 2026-04-30 09:47 | 51.41829 | 12.21894 | 481 ft | 22 kts | 285° |
| 2026-04-30 09:47 | 51.41872 | 12.21753 | 481 ft | 10 kts | 352° |
| 2026-04-30 09:48 | 51.41938 | 12.21776 | 481 ft | 5 kts | 15° |
| 2026-04-30 09:48 | 51.41940 | 12.21777 | 481 ft | 0 kts | 15° |